Time;durP1;ratioP1;P1;durP2;ratioP2;P2;SDS_P1;SDS_P2;PMS_P1;PMS_P2;Temp;Humidity;BMP_temperature;BMP_pressure;BME280_temperature;BME280_humidity;BME280_pressure;Samples;Min_cycle;Max_cycle;Signal;HPM_P1;HPM_P2
2023/07/16 00:02:01;;;;;;;3.40;2.87;;;26.70;71.70;;;;;;5070952;28;20302;-49
2023/07/16 00:04:27;;;;;;;3.33;3.00;;;26.60;72.50;;;;;;5078024;28;20196;-51
2023/07/16 00:06:52;;;;;;;3.60;2.87;;;26.50;72.70;;;;;;5079754;28;20199;-49
2023/07/16 00:09:18;;;;;;;3.63;2.90;;;26.50;72.00;;;;;;5072568;28;20674;-53
2023/07/16 00:11:43;;;;;;;2.50;2.30;;;26.50;71.80;;;;;;5085135;28;20233;-49
2023/07/16 00:14:11;;;;;;;2.60;2.40;;;26.50;70.70;;;;;;5075635;28;20602;-49
2023/07/16 00:16:37;;;;;;;2.07;1.90;;;26.50;70.80;;;;;;5078075;28;20214;-49
2023/07/16 00:19:02;;;;;;;2.47;2.07;;;26.50;70.10;;;;;;5074861;28;20514;-50
2023/07/16 00:21:28;;;;;;;3.07;2.10;;;26.20;71.00;;;;;;5075280;28;20639;-49
2023/07/16 00:23:53;;;;;;;2.50;2.07;;;26.10;71.20;;;;;;5069386;28;20606;-50
2023/07/16 00:26:19;;;;;;;3.70;2.07;;;26.30;70.40;;;;;;5078382;28;20195;-51
2023/07/16 00:28:44;;;;;;;2.50;2.13;;;26.40;70.30;;;;;;5072654;28;20187;-53
2023/07/16 00:31:10;;;;;;;4.80;1.80;;;26.40;69.20;;;;;;5075594;28;20192;-53
2023/07/16 00:33:36;;;;;;;1.93;1.70;;;26.40;69.20;;;;;;5078268;28;20237;-49
2023/07/16 00:36:01;;;;;;;2.83;2.10;;;26.40;69.30;;;;;;5064162;28;20682;-53
2023/07/16 00:38:27;;;;;;;1.57;1.47;;;26.40;68.70;;;;;;5068381;28;20207;-53
2023/07/16 00:40:52;;;;;;;1.90;1.67;;;26.50;68.80;;;;;;5063058;28;20270;-52
2023/07/16 00:43:18;;;;;;;3.23;1.87;;;26.50;68.60;;;;;;5069527;28;20643;-53
2023/07/16 00:45:46;;;;;;;2.03;1.87;;;26.60;69.20;;;;;;5066901;28;20246;-50
2023/07/16 00:48:12;;;;;;;2.03;1.77;;;26.60;69.20;;;;;;5078109;28;20195;-53
2023/07/16 00:50:39;;;;;;;2.07;1.93;;;26.60;69.00;;;;;;5073668;28;20463;-49
2023/07/16 00:53:07;;;;;;;1.60;1.50;;;26.60;68.40;;;;;;5067434;28;20434;-53
2023/07/16 00:55:33;;;;;;;2.20;1.70;;;26.60;68.20;;;;;;5067584;28;20511;-52
2023/07/16 00:58:05;;;;;;;2.50;1.70;;;26.70;68.50;;;;;;5080896;28;20813;-53
2023/07/16 01:00:31;;;;;;;1.60;1.50;;;26.70;68.50;;;;;;5064368;28;20446;-50
2023/07/16 01:02:56;;;;;;;1.60;1.50;;;26.70;68.80;;;;;;5071020;28;20424;-50
2023/07/16 01:05:24;;;;;;;2.77;1.80;;;26.60;69.00;;;;;;5069633;28;20418;-49
2023/07/16 01:07:58;;;;;;;2.37;1.53;;;26.70;68.50;;;;;;5071418;28;20199;-50
2023/07/16 01:10:25;;;;;;;2.10;1.90;;;26.60;67.60;;;;;;5059584;28;20436;-50
2023/07/16 01:12:54;;;;;;;2.57;2.37;;;26.60;68.30;;;;;;5076012;28;20542;-50
2023/07/16 01:15:20;;;;;;;1.80;1.70;;;26.60;69.00;;;;;;5075990;28;20445;-50
2023/07/16 01:17:46;;;;;;;1.67;1.57;;;26.60;68.90;;;;;;5071926;28;20481;-50
2023/07/16 01:20:12;;;;;;;2.90;1.70;;;26.70;68.60;;;;;;5074938;28;20520;-49
2023/07/16 01:22:43;;;;;;;1.90;1.80;;;26.70;68.40;;;;;;5083562;28;20191;-50
2023/07/16 01:25:22;;;;;;;1.77;1.67;;;26.70;68.20;;;;;;5076964;28;20188;-50
2023/07/16 01:28:06;;;;;;;1.70;1.60;;;26.80;67.80;;;;;;5073071;28;20528;-50
2023/07/16 01:30:32;;;;;;;1.57;1.47;;;27.00;66.70;;;;;;5081434;28;20448;-51
2023/07/16 01:33:00;;;;;;;2.00;1.67;;;27.10;66.00;;;;;;5069921;28;20437;-48
2023/07/16 01:35:27;;;;;;;2.33;1.47;;;27.10;65.40;;;;;;5078727;28;20448;-48
2023/07/16 01:37:52;;;;;;;1.50;1.37;;;27.20;64.80;;;;;;5073279;28;20441;-49
2023/07/16 01:40:18;;;;;;;1.87;1.70;;;27.20;64.00;;;;;;5077371;28;20542;-49
2023/07/16 01:42:43;;;;;;;2.00;1.70;;;27.30;64.00;;;;;;5081259;28;20657;-47
2023/07/16 01:45:09;;;;;;;1.80;1.70;;;27.30;63.90;;;;;;5075312;28;20191;-47
2023/07/16 01:48:00;;;;;;;2.00;1.90;;;27.30;63.80;;;;;;5069800;28;20234;-50
2023/07/16 01:50:26;;;;;;;1.63;1.40;;;27.20;63.80;;;;;;5066862;28;20222;-48
2023/07/16 01:52:51;;;;;;;1.50;1.40;;;27.20;63.90;;;;;;5087475;28;20564;-48
2023/07/16 01:55:17;;;;;;;2.43;1.50;;;26.80;60.40;;;;;;5071958;28;20191;-47
2023/07/16 01:57:42;;;;;;;1.47;1.37;;;26.40;61.60;;;;;;5076927;28;20534;-48
2023/07/16 02:00:08;;;;;;;1.50;1.20;;;26.30;61.70;;;;;;5072925;28;20644;-46
2023/07/16 02:02:34;;;;;;;1.37;1.27;;;26.30;59.70;;;;;;5076046;28;20265;-48
2023/07/16 02:04:59;;;;;;;1.73;1.30;;;26.20;58.50;;;;;;5069550;28;20438;-47
2023/07/16 02:07:25;;;;;;;1.30;1.20;;;26.00;57.20;;;;;;5078419;28;20718;-47
2023/07/16 02:09:50;;;;;;;1.40;1.30;;;25.90;56.80;;;;;;5086172;28;20195;-47
2023/07/16 02:12:16;;;;;;;1.40;1.30;;;25.80;56.90;;;;;;5081727;28;20203;-47
2023/07/16 02:14:41;;;;;;;3.80;1.53;;;25.80;56.60;;;;;;5069437;28;20303;-47
2023/07/16 02:17:07;;;;;;;1.87;1.30;;;25.60;56.30;;;;;;5076799;28;20191;-50
2023/07/16 02:19:32;;;;;;;1.93;1.30;;;25.40;57.30;;;;;;5067592;28;20265;-49
2023/07/16 02:21:58;;;;;;;1.60;1.50;;;25.40;57.80;;;;;;5071958;28;20640;-48
2023/07/16 02:24:24;;;;;;;1.33;1.23;;;25.50;58.00;;;;;;5072488;28;20188;-48
2023/07/16 02:26:49;;;;;;;2.00;1.90;;;25.70;57.60;;;;;;5072946;28;20207;-48
2023/07/16 02:29:15;;;;;;;1.67;1.30;;;26.00;57.60;;;;;;5074236;28;20192;-50
2023/07/16 02:31:43;;;;;;;2.17;1.40;;;26.20;57.60;;;;;;5081699;28;20196;-50
2023/07/16 02:34:08;;;;;;;4.80;1.50;;;26.40;57.50;;;;;;5070570;28;20207;-48
2023/07/16 02:36:34;;;;;;;2.27;1.30;;;26.60;57.10;;;;;;5075263;28;20429;-48
2023/07/16 02:38:59;;;;;;;2.57;1.60;;;26.80;56.80;;;;;;5068816;28;20231;-48
2023/07/16 02:41:25;;;;;;;1.20;1.20;;;27.00;56.50;;;;;;5082282;28;20231;-50
2023/07/16 02:44:04;;;;;;;1.60;1.33;;;27.00;56.40;;;;;;5075934;28;20200;-47
2023/07/16 02:46:30;;;;;;;1.43;1.23;;;27.20;56.00;;;;;;5072431;28;20198;-48
2023/07/16 02:48:55;;;;;;;1.63;1.43;;;27.30;55.90;;;;;;5072906;28;20446;-48
2023/07/16 02:51:21;;;;;;;2.13;1.40;;;27.40;55.70;;;;;;5077032;28;20881;-48
2023/07/16 02:53:46;;;;;;;1.90;1.33;;;27.50;55.40;;;;;;5068387;28;20245;-49
2023/07/16 02:56:12;;;;;;;1.63;1.53;;;27.60;55.30;;;;;;5077828;28;20195;-49
2023/07/16 02:58:37;;;;;;;2.20;1.47;;;27.60;55.30;;;;;;5070313;28;20226;-48
2023/07/16 03:01:03;;;;;;;1.87;1.67;;;27.50;55.30;;;;;;5079208;28;20569;-49
2023/07/16 03:03:29;;;;;;;1.43;1.27;;;27.50;55.40;;;;;;5075492;28;20274;-48
2023/07/16 03:05:54;;;;;;;1.47;1.37;;;27.50;55.40;;;;;;5074146;28;20207;-49
2023/07/16 03:08:20;;;;;;;1.80;1.70;;;27.50;55.30;;;;;;5079008;28;20615;-48
2023/07/16 03:10:46;;;;;;;1.50;1.40;;;27.60;55.20;;;;;;5075535;28;20191;-48
2023/07/16 03:13:11;;;;;;;2.60;1.30;;;27.60;55.10;;;;;;5072058;28;20310;-49
2023/07/16 03:15:37;;;;;;;2.30;1.43;;;27.70;55.00;;;;;;5078518;28;20241;-49
2023/07/16 03:18:02;;;;;;;1.70;1.60;;;27.60;54.60;;;;;;5072882;28;20618;-49
2023/07/16 03:20:28;;;;;;;1.50;1.40;;;27.50;53.90;;;;;;5069429;28;20187;-50
2023/07/16 03:22:53;;;;;;;1.60;1.50;;;27.60;54.30;;;;;;5078612;28;20192;-50
2023/07/16 03:25:19;;;;;;;2.20;1.60;;;27.60;54.40;;;;;;5075172;28;20270;-48
2023/07/16 03:27:45;;;;;;;2.30;1.50;;;27.60;54.40;;;;;;5073362;28;20237;-49
2023/07/16 03:30:10;;;;;;;3.70;1.33;;;27.60;54.30;;;;;;5069028;28;20203;-48
2023/07/16 03:32:36;;;;;;;2.20;1.70;;;27.40;53.90;;;;;;5072150;28;20200;-48
2023/07/16 03:35:01;;;;;;;2.30;1.47;;;27.20;54.50;;;;;;5061696;28;20195;-48
2023/07/16 03:37:27;;;;;;;1.63;1.53;;;26.70;54.60;;;;;;5071874;28;20654;-50
2023/07/16 03:39:52;;;;;;;2.83;1.37;;;26.60;55.40;;;;;;5071033;28;20281;-48
2023/07/16 03:42:18;;;;;;;3.57;1.23;;;26.50;56.00;;;;;;5070544;28;20274;-50
2023/07/16 03:44:44;;;;;;;1.60;1.50;;;26.60;56.10;;;;;;5068640;28;20596;-48
2023/07/16 03:47:10;;;;;;;3.23;1.40;;;26.60;55.40;;;;;;5070923;28;20184;-49
2023/07/16 03:49:35;;;;;;;2.93;2.20;;;26.60;55.60;;;;;;5070855;28;20426;-48
2023/07/16 03:52:01;;;;;;;1.97;1.30;;;26.70;55.50;;;;;;5071486;28;20192;-48
2023/07/16 03:54:26;;;;;;;2.40;1.53;;;26.60;55.00;;;;;;5065839;28;20269;-49
2023/07/16 03:56:52;;;;;;;1.60;1.50;;;26.50;55.00;;;;;;5074665;28;20706;-48
2023/07/16 03:59:17;;;;;;;1.73;1.63;;;26.40;55.00;;;;;;5074313;28;20310;-47
2023/07/16 04:01:43;;;;;;;2.00;1.60;;;26.20;55.10;;;;;;5062303;28;20263;-50
2023/07/16 04:04:09;;;;;;;2.07;1.80;;;26.10;55.60;;;;;;5067190;28;20192;-49
2023/07/16 04:06:34;;;;;;;4.37;2.00;;;26.00;56.10;;;;;;5070454;28;20196;-51
2023/07/16 04:09:00;;;;;;;1.73;1.63;;;26.00;56.40;;;;;;5070915;28;20249;-48
2023/07/16 04:11:25;;;;;;;2.93;1.70;;;26.10;56.60;;;;;;5077387;28;20199;-49
2023/07/16 04:13:51;;;;;;;2.27;1.60;;;26.00;55.90;;;;;;5075176;28;20231;-48
2023/07/16 04:16:16;;;;;;;2.90;1.73;;;26.00;56.00;;;;;;5064349;28;20275;-48
2023/07/16 04:18:42;;;;;;;1.63;1.53;;;26.10;56.00;;;;;;5076557;28;20280;-53
2023/07/16 04:21:07;;;;;;;1.87;1.50;;;26.20;55.70;;;;;;5066225;28;20196;-51
2023/07/16 04:23:33;;;;;;;3.03;2.73;;;26.30;55.40;;;;;;5069251;28;20191;-51
2023/07/16 04:25:58;;;;;;;1.70;1.43;;;26.50;54.90;;;;;;5071865;28;20191;-52
2023/07/16 04:28:24;;;;;;;1.57;1.40;;;26.60;54.90;;;;;;5080797;28;20191;-52
2023/07/16 04:30:50;;;;;;;2.10;1.53;;;26.70;54.70;;;;;;5071144;28;20660;-51
2023/07/16 04:33:15;;;;;;;2.50;2.00;;;26.80;54.40;;;;;;5075233;28;20191;-52
2023/07/16 04:35:41;;;;;;;3.77;1.70;;;26.90;54.30;;;;;;5074722;28;20237;-52
2023/07/16 04:38:07;;;;;;;3.50;2.00;;;27.00;54.20;;;;;;5070267;28;20556;-51
2023/07/16 04:40:33;;;;;;;2.53;1.40;;;27.00;54.00;;;;;;5070758;28;20260;-51
2023/07/16 04:42:59;;;;;;;3.70;2.17;;;27.10;53.80;;;;;;5085830;28;20442;-52
2023/07/16 04:45:24;;;;;;;1.73;1.63;;;27.10;53.90;;;;;;5077116;28;20266;-51
2023/07/16 04:47:50;;;;;;;2.40;1.50;;;27.10;53.80;;;;;;5079312;28;20646;-49
2023/07/16 04:50:15;;;;;;;3.43;1.77;;;27.20;53.80;;;;;;5083500;28;20549;-53
2023/07/16 04:52:41;;;;;;;1.97;1.27;;;27.20;53.90;;;;;;5068636;28;20203;-50
2023/07/16 04:55:07;;;;;;;3.50;2.00;;;27.20;54.10;;;;;;5076047;28;20620;-52
2023/07/16 04:57:33;;;;;;;1.57;1.27;;;27.20;54.30;;;;;;5087580;28;20195;-52
2023/07/16 04:59:59;;;;;;;3.20;1.90;;;27.20;54.50;;;;;;5070928;28;20235;-52
2023/07/16 05:02:24;;;;;;;4.20;1.57;;;27.20;54.60;;;;;;5076870;28;20436;-52
2023/07/16 05:04:50;;;;;;;3.17;1.50;;;27.20;54.80;;;;;;5076379;28;20195;-52
2023/07/16 05:07:16;;;;;;;3.73;1.63;;;27.30;54.80;;;;;;5071296;28;20191;-51
2023/07/16 05:09:43;;;;;;;2.83;2.33;;;27.30;54.90;;;;;;5067253;28;20235;-48
2023/07/16 05:12:09;;;;;;;1.90;1.70;;;27.40;55.10;;;;;;5063340;28;20200;-49
2023/07/16 05:14:45;;;;;;;2.53;1.50;;;27.40;55.00;;;;;;5074760;28;20453;-49
2023/07/16 05:17:10;;;;;;;2.60;1.40;;;27.50;55.10;;;;;;5082912;28;20195;-52
2023/07/16 05:19:36;;;;;;;3.77;1.40;;;27.50;55.10;;;;;;5071200;28;20489;-52
2023/07/16 05:22:03;;;;;;;4.70;1.90;;;27.50;55.00;;;;;;5080018;28;20247;-52
2023/07/16 05:24:28;;;;;;;2.50;1.80;;;27.50;55.00;;;;;;5073606;28;20454;-53
2023/07/16 05:26:54;;;;;;;2.40;1.73;;;27.50;54.90;;;;;;5069060;28;20192;-53
2023/07/16 05:29:20;;;;;;;1.70;1.60;;;27.40;54.40;;;;;;5072499;28;20196;-53
2023/07/16 05:31:46;;;;;;;1.83;1.73;;;27.40;54.20;;;;;;5081773;28;20197;-52
2023/07/16 05:34:12;;;;;;;3.17;2.03;;;27.40;54.10;;;;;;5084193;28;20191;-52
2023/07/16 05:36:37;;;;;;;1.80;1.60;;;27.30;54.00;;;;;;5076862;28;20498;-52
2023/07/16 05:39:03;;;;;;;3.40;1.73;;;27.30;54.00;;;;;;5073306;28;20977;-52
2023/07/16 05:41:29;;;;;;;3.37;1.70;;;27.30;54.10;;;;;;5075121;28;20203;-51
2023/07/16 05:43:54;;;;;;;2.03;1.70;;;27.30;55.00;;;;;;5081626;28;20561;-52
2023/07/16 05:46:20;;;;;;;4.70;1.50;;;27.20;54.60;;;;;;5067253;28;20196;-52
2023/07/16 05:48:45;;;;;;;2.07;1.80;;;27.20;54.70;;;;;;5076186;28;20204;-51
2023/07/16 05:51:11;;;;;;;2.20;1.97;;;27.20;55.00;;;;;;5080106;28;20274;-52
2023/07/16 05:53:36;;;;;;;1.63;1.53;;;27.20;55.10;;;;;;5075660;28;20191;-49
2023/07/16 05:56:02;;;;;;;3.17;1.87;;;27.20;55.10;;;;;;5073374;28;20192;-53
2023/07/16 05:58:29;;;;;;;1.77;1.67;;;27.20;55.40;;;;;;5071472;28;20215;-53
2023/07/16 06:00:54;;;;;;;2.40;1.90;;;27.30;55.60;;;;;;5068118;28;20441;-51
2023/07/16 06:03:20;;;;;;;3.00;1.83;;;27.20;55.20;;;;;;5061163;28;20442;-51
2023/07/16 06:05:46;;;;;;;1.80;1.70;;;27.20;55.30;;;;;;5072539;28;20192;-52
2023/07/16 06:08:12;;;;;;;2.23;2.00;;;27.10;55.00;;;;;;5081254;28;20274;-51
2023/07/16 06:10:38;;;;;;;1.97;1.70;;;26.80;55.40;;;;;;5067038;28;20274;-52
2023/07/16 06:13:04;;;;;;;1.80;1.70;;;26.70;55.30;;;;;;5066238;28;20471;-53
2023/07/16 06:15:30;;;;;;;2.27;1.97;;;26.50;55.60;;;;;;5068173;28;20523;-52
2023/07/16 06:17:55;;;;;;;2.03;1.77;;;26.40;55.90;;;;;;5062549;28;20207;-51
2023/07/16 06:20:21;;;;;;;3.37;1.67;;;26.50;56.10;;;;;;5070399;28;20224;-52
2023/07/16 06:22:46;;;;;;;4.60;1.80;;;26.50;56.40;;;;;;5073464;28;20625;-51
2023/07/16 06:25:12;;;;;;;2.00;1.80;;;26.50;56.00;;;;;;5076021;28;20195;-51
2023/07/16 06:27:38;;;;;;;2.73;1.90;;;26.50;56.20;;;;;;5074153;28;20188;-48
2023/07/16 06:30:05;;;;;;;4.13;1.80;;;26.60;55.90;;;;;;5075114;28;20441;-50
2023/07/16 06:32:31;;;;;;;2.70;1.50;;;26.50;55.40;;;;;;5068528;28;20191;-49
2023/07/16 06:34:57;;;;;;;4.13;1.53;;;26.20;54.90;;;;;;5067555;28;20486;-52
2023/07/16 06:37:23;;;;;;;1.77;1.37;;;26.10;55.60;;;;;;5071936;28;20184;-49
2023/07/16 06:39:49;;;;;;;2.30;1.83;;;26.20;56.00;;;;;;5069200;28;20959;-52
2023/07/16 06:42:15;;;;;;;2.90;1.60;;;26.20;55.40;;;;;;5077714;28;20528;-52
2023/07/16 06:44:40;;;;;;;2.77;1.93;;;26.20;53.90;;;;;;5062707;28;20187;-50
2023/07/16 06:47:06;;;;;;;2.73;1.77;;;26.10;54.40;;;;;;5064647;28;20253;-51
2023/07/16 06:49:32;;;;;;;2.03;1.70;;;26.10;54.90;;;;;;5067857;28;20200;-50
2023/07/16 06:51:57;;;;;;;4.40;1.70;;;26.20;55.20;;;;;;5068417;28;20279;-53
2023/07/16 06:54:23;;;;;;;3.93;1.73;;;26.20;55.20;;;;;;5061420;28;20299;-52
2023/07/16 06:56:48;;;;;;;3.70;1.70;;;26.20;54.60;;;;;;5071631;28;20202;-51
2023/07/16 06:59:14;;;;;;;7.00;2.30;;;26.20;55.00;;;;;;5069989;28;20227;-51
2023/07/16 07:01:39;;;;;;;3.87;1.67;;;26.30;55.00;;;;;;5069598;28;20619;-50
2023/07/16 07:04:05;;;;;;;2.97;1.77;;;26.40;55.00;;;;;;5076798;28;20204;-48
2023/07/16 07:06:30;;;;;;;4.40;1.97;;;26.40;54.80;;;;;;5069704;28;20206;-52
2023/07/16 07:08:56;;;;;;;4.47;2.60;;;26.40;54.70;;;;;;5073583;28;20253;-51
2023/07/16 07:11:22;;;;;;;5.00;2.00;;;26.30;55.10;;;;;;5066537;28;20192;-48
2023/07/16 07:13:47;;;;;;;3.50;1.80;;;26.10;54.50;;;;;;5065962;28;20243;-48
2023/07/16 07:16:13;;;;;;;3.83;1.90;;;26.10;54.90;;;;;;5070307;28;20269;-49
2023/07/16 07:18:38;;;;;;;2.60;1.80;;;26.20;54.90;;;;;;5067004;28;20310;-47
2023/07/16 07:21:04;;;;;;;6.43;1.97;;;26.10;54.20;;;;;;5082746;28;20240;-49
2023/07/16 07:23:30;;;;;;;4.03;1.80;;;25.90;54.30;;;;;;5077386;28;20635;-48
2023/07/16 07:25:55;;;;;;;4.23;1.77;;;25.90;54.70;;;;;;5064429;28;20195;-47
2023/07/16 07:28:21;;;;;;;5.00;2.20;;;26.00;54.30;;;;;;5072107;28;20587;-46
2023/07/16 07:30:46;;;;;;;3.70;1.90;;;26.00;53.20;;;;;;5072121;28;20188;-46
2023/07/16 07:33:12;;;;;;;5.40;2.10;;;26.20;53.10;;;;;;5075828;28;20196;-46
2023/07/16 07:35:38;;;;;;;3.27;1.87;;;26.20;52.30;;;;;;5069144;28;20246;-47
2023/07/16 07:38:03;;;;;;;4.23;2.00;;;26.40;51.40;;;;;;5071677;28;20190;-46
2023/07/16 07:40:29;;;;;;;2.63;2.00;;;26.40;50.80;;;;;;5056161;28;20638;-47
2023/07/16 07:42:54;;;;;;;3.50;1.70;;;26.30;50.20;;;;;;5079257;28;20191;-47
2023/07/16 07:45:20;;;;;;;3.03;1.70;;;25.80;49.60;;;;;;5071205;28;20226;-46
2023/07/16 07:47:45;;;;;;;3.80;2.10;;;25.60;52.70;;;;;;5069916;28;20671;-47
2023/07/16 07:50:11;;;;;;;3.90;2.00;;;25.90;52.20;;;;;;5081905;28;20198;-48
2023/07/16 07:52:37;;;;;;;2.50;1.80;;;26.00;50.90;;;;;;5072119;28;20184;-50
2023/07/16 07:55:03;;;;;;;2.83;1.70;;;26.20;50.60;;;;;;5073373;28;20264;-47
2023/07/16 07:57:29;;;;;;;3.23;1.70;;;26.30;50.60;;;;;;5059988;28;20191;-47
2023/07/16 07:59:57;;;;;;;4.03;2.00;;;26.20;50.00;;;;;;5075424;28;20505;-47
2023/07/16 08:02:23;;;;;;;8.07;1.80;;;26.30;50.70;;;;;;5072172;28;20200;-47
2023/07/16 08:04:51;;;;;;;3.37;2.10;;;26.40;50.90;;;;;;5071301;28;20422;-46
2023/07/16 08:07:17;;;;;;;3.53;1.73;;;26.40;49.70;;;;;;5067624;28;20437;-48
2023/07/16 08:09:43;;;;;;;3.23;1.80;;;26.10;50.20;;;;;;5069006;28;20817;-47
2023/07/16 08:12:08;;;;;;;3.90;2.00;;;25.90;51.00;;;;;;5060001;28;20207;-46
2023/07/16 08:14:34;;;;;;;1.97;1.80;;;26.10;51.30;;;;;;5068906;28;20707;-47
2023/07/16 08:17:00;;;;;;;3.87;1.80;;;26.30;50.30;;;;;;5060210;28;20199;-47
2023/07/16 08:19:25;;;;;;;2.70;1.83;;;26.10;50.00;;;;;;5063296;28;20322;-48
2023/07/16 08:21:51;;;;;;;2.80;2.17;;;26.10;51.00;;;;;;5073371;28;20195;-46
2023/07/16 08:24:16;;;;;;;2.73;1.90;;;26.30;51.00;;;;;;5060291;28;21379;-49
2023/07/16 08:26:42;;;;;;;3.73;1.73;;;26.40;50.60;;;;;;5058321;28;20196;-47
2023/07/16 08:29:07;;;;;;;3.83;2.10;;;26.40;50.70;;;;;;5073361;28;20200;-52
2023/07/16 08:31:33;;;;;;;2.93;2.10;;;26.70;50.60;;;;;;5063787;28;20204;-47
2023/07/16 08:33:58;;;;;;;3.43;2.50;;;26.40;48.80;;;;;;5075024;28;20666;-48
2023/07/16 08:36:24;;;;;;;2.37;1.87;;;26.20;49.30;;;;;;5062439;28;20643;-48
2023/07/16 08:38:50;;;;;;;4.30;2.07;;;26.50;50.00;;;;;;5066452;28;21330;-48
2023/07/16 08:41:16;;;;;;;3.73;2.33;;;26.70;48.70;;;;;;5070700;28;20606;-47
2023/07/16 08:43:42;;;;;;;2.63;1.60;;;26.50;48.00;;;;;;5065281;28;20682;-48
2023/07/16 08:46:09;;;;;;;4.80;2.07;;;26.50;48.40;;;;;;5060758;28;20474;-50
2023/07/16 08:48:34;;;;;;;6.07;2.23;;;26.60;48.40;;;;;;5063837;28;20439;-47
2023/07/16 08:51:02;;;;;;;1.70;1.57;;;26.60;48.20;;;;;;5079559;28;20539;-50
2023/07/16 08:53:27;;;;;;;4.70;2.23;;;26.80;48.90;;;;;;5065726;28;20894;-49
2023/07/16 08:55:53;;;;;;;1.70;1.60;;;26.90;47.70;;;;;;5067310;28;20527;-47
2023/07/16 08:58:23;;;;;;;3.33;1.90;;;27.10;47.10;;;;;;5078996;28;20252;-48
2023/07/16 09:00:49;;;;;;;3.17;1.90;;;27.40;47.00;;;;;;5068837;28;20966;-48
2023/07/16 09:03:17;;;;;;;1.73;1.63;;;27.60;46.20;;;;;;5065467;28;20447;-48
2023/07/16 09:05:44;;;;;;;2.77;1.80;;;27.80;45.90;;;;;;5065509;28;20193;-47
2023/07/16 09:08:10;;;;;;;2.90;1.60;;;27.80;46.10;;;;;;5074123;28;20437;-48
2023/07/16 09:10:36;;;;;;;2.00;1.80;;;27.40;45.80;;;;;;5076762;28;20824;-48
2023/07/16 09:13:02;;;;;;;1.97;1.80;;;27.50;46.40;;;;;;5071382;28;20473;-47
2023/07/16 09:15:29;;;;;;;2.67;2.20;;;27.60;45.60;;;;;;5066927;28;20446;-50
2023/07/16 09:17:56;;;;;;;6.50;1.90;;;27.70;45.40;;;;;;5063345;28;20211;-48
2023/07/16 09:20:25;;;;;;;4.40;1.80;;;27.70;45.00;;;;;;5061443;28;20901;-48
2023/07/16 09:22:55;;;;;;;3.00;2.23;;;27.70;45.10;;;;;;5072415;28;20452;-47
2023/07/16 09:25:31;;;;;;;2.90;2.20;;;27.90;44.60;;;;;;5072427;28;20454;-48
2023/07/16 09:28:04;;;;;;;2.30;1.70;;;28.10;44.40;;;;;;5073116;28;20449;-50
2023/07/16 09:30:33;;;;;;;4.37;2.40;;;28.30;43.40;;;;;;5070218;28;20442;-47
2023/07/16 09:33:11;;;;;;;4.43;1.90;;;28.50;42.80;;;;;;5076619;28;20808;-47
2023/07/16 09:35:37;;;;;;;1.80;1.53;;;28.40;42.00;;;;;;5070150;28;20527;-47
2023/07/16 09:38:04;;;;;;;3.30;1.73;;;28.70;42.10;;;;;;5075575;28;20567;-47
2023/07/16 09:40:29;;;;;;;2.87;2.23;;;28.90;41.50;;;;;;5073988;28;20227;-47
2023/07/16 09:42:55;;;;;;;2.00;1.80;;;29.00;41.70;;;;;;5074156;28;22297;-47
2023/07/16 09:45:21;;;;;;;2.47;1.77;;;29.10;41.00;;;;;;5066387;28;20196;-48
2023/07/16 09:47:47;;;;;;;3.70;1.90;;;29.30;41.70;;;;;;5079784;28;20433;-48
2023/07/16 09:50:12;;;;;;;3.93;1.90;;;29.40;40.30;;;;;;5063605;28;20266;-48
2023/07/16 09:52:39;;;;;;;3.47;1.67;;;29.60;40.40;;;;;;5069193;28;20690;-48
2023/07/16 09:55:07;;;;;;;2.90;1.67;;;29.50;39.40;;;;;;5072950;28;20206;-50
2023/07/16 09:57:41;;;;;;;2.20;2.00;;;29.60;39.20;;;;;;5062718;28;20453;-47
2023/07/16 10:00:13;;;;;;;3.77;1.80;;;29.50;39.40;;;;;;5067327;28;20486;-48
2023/07/16 10:02:40;;;;;;;2.03;1.57;;;29.40;39.70;;;;;;5082944;28;20439;-47
2023/07/16 10:05:17;;;;;;;2.47;1.80;;;29.40;39.00;;;;;;5080202;28;20459;-53
2023/07/16 10:07:49;;;;;;;1.80;1.40;;;29.20;40.00;;;;;;5070832;28;20936;-48
2023/07/16 10:10:17;;;;;;;2.10;1.93;;;29.30;39.40;;;;;;5086158;28;20453;-49
2023/07/16 10:12:43;;;;;;;3.70;1.53;;;29.30;38.90;;;;;;5072571;28;20479;-49
2023/07/16 10:15:11;;;;;;;2.10;1.90;;;29.30;38.90;;;;;;5074153;28;20458;-48
2023/07/16 10:17:37;;;;;;;1.97;1.87;;;29.30;39.10;;;;;;5077597;28;20195;-48
2023/07/16 10:20:12;;;;;;;2.57;1.80;;;28.90;39.60;;;;;;5081354;28;20996;-51
2023/07/16 10:22:42;;;;;;;1.70;1.57;;;29.10;39.90;;;;;;5085060;28;20730;-47
2023/07/16 10:25:22;;;;;;;1.93;1.60;;;29.30;39.20;;;;;;5074776;28;20940;-49
2023/07/16 10:27:49;;;;;;;3.00;1.70;;;29.50;39.00;;;;;;5069742;28;20450;-48
2023/07/16 10:30:15;;;;;;;2.20;1.60;;;29.70;38.20;;;;;;5080076;28;20434;-48
2023/07/16 10:32:41;;;;;;;2.13;1.93;;;29.90;37.70;;;;;;5076916;28;20441;-49
2023/07/16 10:35:11;;;;;;;6.70;1.50;;;30.10;37.30;;;;;;5074003;28;20441;-51
2023/07/16 10:37:37;;;;;;;3.10;2.07;;;30.20;36.70;;;;;;5072033;28;20275;-49
2023/07/16 10:40:04;;;;;;;1.80;1.63;;;30.10;37.70;;;;;;5064984;28;20482;-48
2023/07/16 10:42:30;;;;;;;5.77;1.87;;;29.90;38.30;;;;;;5085935;28;20429;-48
2023/07/16 10:45:06;;;;;;;4.30;2.00;;;30.10;37.40;;;;;;5076873;28;20446;-52
2023/07/16 10:47:34;;;;;;;1.67;1.50;;;30.40;37.90;;;;;;5071405;28;20434;-51
2023/07/16 10:50:02;;;;;;;2.97;2.00;;;30.60;37.70;;;;;;5073820;28;20815;-49
2023/07/16 10:52:28;;;;;;;5.23;2.00;;;30.90;36.80;;;;;;5083432;28;20445;-47
2023/07/16 10:54:54;;;;;;;3.57;1.90;;;31.10;35.70;;;;;;5079158;28;20499;-48
2023/07/16 10:57:21;;;;;;;2.50;2.20;;;31.40;35.40;;;;;;5064988;28;20204;-48
2023/07/16 10:59:49;;;;;;;2.00;1.80;;;31.50;35.20;;;;;;5074541;28;20861;-48
2023/07/16 11:02:15;;;;;;;1.93;1.83;;;31.50;35.60;;;;;;5073150;28;20913;-51
2023/07/16 11:04:41;;;;;;;2.73;1.73;;;31.50;36.20;;;;;;5076787;28;20449;-49
2023/07/16 11:07:08;;;;;;;1.93;1.70;;;31.80;36.30;;;;;;5079636;28;20456;-48
2023/07/16 11:09:41;;;;;;;1.83;1.73;;;32.10;36.10;;;;;;5057698;28;20438;-49
2023/07/16 11:12:08;;;;;;;2.07;1.87;;;32.20;35.90;;;;;;5064763;28;20427;-48
2023/07/16 11:14:34;;;;;;;2.57;2.00;;;32.50;35.00;;;;;;5077662;28;20438;-48
2023/07/16 11:17:10;;;;;;;2.93;2.17;;;32.60;34.00;;;;;;5085908;28;20467;-50
2023/07/16 11:19:36;;;;;;;2.83;1.97;;;32.70;34.90;;;;;;5072844;28;21300;-51
2023/07/16 11:22:04;;;;;;;4.20;2.00;;;32.60;34.30;;;;;;5064632;28;20521;-48
2023/07/16 11:24:42;;;;;;;2.80;2.20;;;32.60;34.80;;;;;;5065414;28;20433;-48
2023/07/16 11:27:15;;;;;;;2.87;2.33;;;32.60;34.70;;;;;;5080230;28;20441;-47
2023/07/16 11:29:44;;;;;;;4.70;2.10;;;32.60;36.30;;;;;;5072052;28;20434;-48
2023/07/16 11:32:10;;;;;;;2.70;2.10;;;32.80;34.80;;;;;;5068472;28;20526;-49
2023/07/16 11:34:36;;;;;;;2.90;1.90;;;33.00;34.50;;;;;;5070535;28;20529;-48
2023/07/16 11:37:09;;;;;;;2.60;1.93;;;33.20;35.30;;;;;;5075946;28;20198;-48
2023/07/16 11:39:35;;;;;;;3.03;1.60;;;33.40;34.10;;;;;;5066912;28;20989;-48
2023/07/16 11:42:02;;;;;;;2.87;2.30;;;33.40;33.10;;;;;;5072569;28;20554;-48
2023/07/16 11:44:33;;;;;;;2.93;2.63;;;33.50;32.30;;;;;;5071672;28;20223;-47
2023/07/16 11:46:59;;;;;;;1.90;1.80;;;33.50;32.60;;;;;;5071818;28;20438;-48
2023/07/16 11:49:24;;;;;;;2.40;2.20;;;33.60;32.70;;;;;;5077493;28;20515;-48
2023/07/16 11:51:50;;;;;;;2.93;2.00;;;33.60;32.60;;;;;;5074451;28;20218;-51
2023/07/16 11:54:15;;;;;;;2.70;2.00;;;33.70;33.50;;;;;;5055274;28;20200;-49
2023/07/16 11:56:41;;;;;;;3.23;2.33;;;33.70;33.50;;;;;;5069382;28;20203;-47
2023/07/16 11:59:06;;;;;;;2.57;2.10;;;33.70;33.30;;;;;;5076796;28;20306;-51
2023/07/16 12:01:32;;;;;;;3.10;2.20;;;33.60;32.20;;;;;;5071315;28;20206;-49
2023/07/16 12:03:58;;;;;;;2.30;2.10;;;33.50;31.30;;;;;;5079956;28;20200;-50
2023/07/16 12:06:23;;;;;;;3.17;2.00;;;33.50;32.10;;;;;;5080957;28;20671;-47
2023/07/16 12:08:49;;;;;;;2.30;2.10;;;33.50;31.50;;;;;;5081973;28;20198;-53
2023/07/16 12:11:14;;;;;;;4.03;2.23;;;33.60;32.50;;;;;;5077133;28;20202;-49
2023/07/16 12:13:40;;;;;;;1.90;1.80;;;33.30;32.60;;;;;;5070507;28;20262;-50
2023/07/16 12:16:06;;;;;;;2.67;2.00;;;33.20;32.60;;;;;;5074674;28;20203;-48
2023/07/16 12:18:31;;;;;;;2.70;1.93;;;33.10;33.60;;;;;;5055124;28;20584;-48
2023/07/16 12:20:57;;;;;;;3.07;2.17;;;33.10;34.10;;;;;;5063587;28;20219;-52
2023/07/16 12:23:23;;;;;;;2.50;2.30;;;33.10;32.90;;;;;;5054881;28;20191;-51
2023/07/16 12:25:50;;;;;;;2.47;2.00;;;33.20;33.30;;;;;;5069135;28;20261;-50
2023/07/16 12:28:15;;;;;;;2.87;2.07;;;33.20;34.10;;;;;;5069386;28;20608;-51
2023/07/16 12:30:41;;;;;;;2.53;2.13;;;33.50;33.10;;;;;;5063615;28;20456;-49
2023/07/16 12:33:07;;;;;;;2.33;2.13;;;33.40;32.20;;;;;;5072899;28;20278;-47
2023/07/16 12:35:32;;;;;;;2.43;2.20;;;33.60;33.00;;;;;;5068226;28;20196;-49
2023/07/16 12:37:58;;;;;;;3.90;2.00;;;33.90;32.90;;;;;;5073288;28;20226;-51
2023/07/16 12:40:25;;;;;;;2.70;1.87;;;34.00;33.70;;;;;;5060637;28;20253;-49
2023/07/16 12:42:50;;;;;;;4.00;2.40;;;34.20;32.70;;;;;;5067676;28;20222;-48
2023/07/16 12:45:16;;;;;;;4.10;2.30;;;34.40;32.60;;;;;;5066970;28;20483;-45